Time;durP1;ratioP1;P1;durP2;ratioP2;P2;SDS_P1;SDS_P2;PMS_P1;PMS_P2;Temp;Humidity;BMP_temperature;BMP_pressure;BME280_temperature;BME280_humidity;BME280_pressure;Samples;Min_cycle;Max_cycle;Signal;HPM_P1;HPM_P2
2021/12/22 00:00:37;;;;;;;33.35;16.33;;;;;;;13.15;40.06;101434.75;4408001;32;20405;-69
2021/12/22 00:03:05;;;;;;;32.08;17.75;;;;;;;12.74;40.51;101411.88;4408007;32;20117;-69
2021/12/22 00:05:32;;;;;;;32.17;18.48;;;;;;;12.90;40.47;101417.56;4410187;32;20079;-69
2021/12/22 00:07:58;;;;;;;38.95;19.00;;;;;;;12.63;40.99;101408.47;4408174;32;20088;-69
2021/12/22 00:10:25;;;;;;;31.67;18.87;;;;;;;12.92;40.71;101412.25;4409107;32;20045;-69
2021/12/22 00:12:52;;;;;;;34.53;17.40;;;;;;;13.05;40.47;101404.72;4410099;32;20034;-69
2021/12/22 00:15:18;;;;;;;36.28;18.20;;;;;;;12.69;41.03;101403.09;4408318;32;20417;-69
2021/12/22 00:17:44;;;;;;;31.42;17.75;;;;;;;12.65;41.11;101405.22;4408011;32;20096;-69
2021/12/22 00:20:13;;;;;;;35.22;19.08;;;;;;;12.61;41.35;101384.75;4409215;32;20058;-69
2021/12/22 00:22:39;;;;;;;37.05;19.30;;;;;;;12.82;41.10;101384.28;4410444;32;20068;-69
2021/12/22 00:25:05;;;;;;;39.75;19.40;;;;;;;12.91;40.57;101379.59;4409261;32;20422;-69
2021/12/22 00:27:30;;;;;;;38.33;18.92;;;;;;;12.62;40.91;101369.37;4410294;32;20049;-69
2021/12/22 00:29:56;;;;;;;34.15;18.83;;;;;;;12.81;40.89;101375.00;4408300;32;21116;-69
2021/12/22 00:32:23;;;;;;;36.45;17.58;;;;;;;13.04;40.30;101380.53;4407994;32;20518;-69
2021/12/22 00:34:53;;;;;;;38.88;19.00;;;;;;;13.20;40.18;101380.53;4408918;32;20104;-69
2021/12/22 00:37:22;;;;;;;34.20;19.92;;;;;;;13.32;40.15;101382.66;4393058;32;20089;-69
2021/12/22 00:39:48;;;;;;;35.03;19.40;;;;;;;13.50;39.81;101382.22;4408016;32;20093;-69
2021/12/22 00:42:14;;;;;;;37.97;19.60;;;;;;;13.34;39.96;101380.19;4409580;32;20085;-70
2021/12/22 00:44:42;;;;;;;38.08;21.40;;;;;;;13.44;39.84;101381.94;4410603;32;20528;-69
2021/12/22 00:47:08;;;;;;;34.47;18.62;;;;;;;13.67;39.59;101381.75;4409375;32;20061;-69
2021/12/22 00:49:34;;;;;;;36.30;20.02;;;;;;;13.18;40.31;101380.19;4408800;32;20089;-69
2021/12/22 00:52:00;;;;;;;34.60;19.75;;;;;;;13.34;39.96;101387.84;4410583;32;20046;-69
2021/12/22 00:54:26;;;;;;;33.90;20.02;;;;;;;13.29;40.20;101394.84;4408903;32;20114;-69
2021/12/22 00:56:54;;;;;;;39.10;20.58;;;;;;;12.93;40.61;101396.09;4410019;32;20077;-69
2021/12/22 00:59:21;;;;;;;36.83;20.50;;;;;;;13.00;40.61;101393.13;4409319;32;20450;-69
2021/12/22 01:01:46;;;;;;;36.75;20.40;;;;;;;12.99;40.50;101388.69;4409042;32;20091;-69
2021/12/22 01:04:12;;;;;;;37.80;20.33;;;;;;;12.83;40.93;101389.47;4407387;32;20096;-69
2021/12/22 01:06:39;;;;;;;44.00;22.48;;;;;;;12.89;40.89;101381.28;4408345;32;20076;-69
2021/12/22 01:09:05;;;;;;;38.97;21.50;;;;;;;13.17;40.50;101374.97;4406837;32;20082;-69
2021/12/22 01:11:31;;;;;;;38.65;22.13;;;;;;;13.37;39.74;101372.84;4409025;32;20539;-70
2021/12/22 01:13:57;;;;;;;43.40;21.23;;;;;;;13.49;39.83;101370.09;4408926;32;20059;-70
2021/12/22 01:16:23;;;;;;;40.88;21.33;;;;;;;13.59;39.82;101366.19;4408535;32;20038;-70
2021/12/22 01:18:49;;;;;;;40.10;20.90;;;;;;;13.60;39.29;101362.13;4407371;32;20448;-70
2021/12/22 01:21:23;;;;;;;35.58;21.60;;;;;;;13.55;39.74;101357.03;4405651;32;20077;-70
2021/12/22 01:26:40;;;;;;;42.33;21.60;;;;;;;13.49;39.38;101358.78;4408859;32;20107;-69
2021/12/22 01:29:06;;;;;;;38.97;20.52;;;;;;;13.12;40.22;101345.22;4407538;32;20045;-69
2021/12/22 01:31:31;;;;;;;41.60;22.40;;;;;;;13.02;40.74;101342.66;4408517;32;20037;-69
2021/12/22 01:33:57;;;;;;;38.40;21.30;;;;;;;12.87;41.03;101349.84;4394728;32;20469;-69
2021/12/22 01:36:23;;;;;;;41.42;22.30;;;;;;;12.94;40.77;101349.66;4407758;32;20153;-69
2021/12/22 01:38:48;;;;;;;45.22;22.50;;;;;;;12.78;41.24;101344.00;4407388;32;20069;-69
2021/12/22 01:41:14;;;;;;;40.88;23.17;;;;;;;12.85;41.02;101336.16;4394231;32;20554;-69
2021/12/22 01:43:40;;;;;;;52.17;22.90;;;;;;;12.67;41.40;101335.78;4408797;32;20469;-69
2021/12/22 01:49:09;;;;;;;45.55;24.40;;;;;;;12.39;42.01;101330.78;4409578;32;20195;-69
2021/12/22 01:49:10;;;;;;;48.87;24.77;;;;;;;12.78;41.52;101322.22;4407652;32;20112;-70
2021/12/22 01:54:37;;;;;;;49.60;25.20;;;;;;;13.32;40.90;101326.13;3986105;32;15125161;-69
2021/12/22 01:57:08;;;;;;;51.20;25.02;;;;;;;13.32;40.90;101326.13;4444073;32;20341;-69
2021/12/22 01:59:36;;;;;;;49.95;26.10;;;;;;;12.26;42.35;101318.56;4441784;32;20762;-69
2021/12/22 02:02:04;;;;;;;55.92;26.95;;;;;;;12.58;42.19;101332.75;4441992;32;20514;-70
2021/12/22 02:04:30;;;;;;;52.53;25.77;;;;;;;12.39;42.42;101330.00;4440491;32;20064;-70
2021/12/22 02:06:56;;;;;;;49.25;24.25;;;;;;;12.47;42.22;101331.41;4444180;32;20041;-70
2021/12/22 02:12:10;;;;;;;51.58;25.90;;;;;;;12.45;42.39;101319.78;4440586;32;20385;-70
2021/12/22 02:14:36;;;;;;;51.75;24.52;;;;;;;12.65;42.15;101326.97;4441981;32;20029;-69
2021/12/22 02:17:07;;;;;;;51.58;26.50;;;;;;;12.38;42.53;101326.38;4443676;32;20067;-69
2021/12/22 02:19:38;;;;;;;50.67;25.62;;;;;;;12.65;42.02;101320.50;4440849;32;20068;-69
2021/12/22 02:22:08;;;;;;;54.35;26.37;;;;;;;12.62;42.13;101325.00;4442835;32;20029;-69
2021/12/22 02:24:34;;;;;;;59.47;26.80;;;;;;;12.47;42.29;101329.38;4443599;32;20029;-69
2021/12/22 02:27:05;;;;;;;54.60;26.77;;;;;;;12.34;42.54;101320.00;4444150;32;20071;-69
2021/12/22 02:29:37;;;;;;;54.33;26.08;;;;;;;12.28;42.87;101316.09;4442097;32;20050;-69
2021/12/22 02:32:30;;;;;;;52.53;27.27;;;;;;;12.27;42.88;101308.84;4439332;32;20442;-69
2021/12/22 02:34:52;;;;;;;58.15;28.40;;;;;;;12.26;43.05;101306.47;4439535;32;20033;-69
2021/12/22 02:37:24;;;;;;;56.58;28.58;;;;;;;12.06;43.40;101301.66;4444782;32;20037;-69
2021/12/22 02:39:58;;;;;;;54.63;28.42;;;;;;;12.11;43.27;101297.53;4441251;32;20064;-69
2021/12/22 02:42:29;;;;;;;55.60;27.67;;;;;;;11.90;43.56;101290.31;4440867;32;21157;-69
2021/12/22 02:44:55;;;;;;;60.72;28.55;;;;;;;12.00;43.38;101285.69;4442950;32;20029;-69
2021/12/22 02:47:25;;;;;;;52.90;26.45;;;;;;;11.81;43.46;101289.28;4440809;32;20063;-69
2021/12/22 02:49:50;;;;;;;62.33;28.40;;;;;;;11.91;43.60;101291.13;4439303;32;20063;-69
2021/12/22 02:52:17;;;;;;;59.45;28.05;;;;;;;11.67;44.04;101290.38;4439026;32;20097;-69
2021/12/22 02:54:52;;;;;;;58.15;28.15;;;;;;;11.79;43.79;101288.94;4442863;32;20502;-69
2021/12/22 02:57:25;;;;;;;;;;;;;;;11.73;44.03;101279.41;4442453;32;20389;-69
2021/12/22 03:00:22;;;;;;;70.97;28.60;;;;;;;12.01;43.25;101282.44;4439585;32;19972;-69
2021/12/22 03:03:00;;;;;;;64.12;29.95;;;;;;;11.46;44.20;101287.13;4440628;32;20108;-69
2021/12/22 03:05:25;;;;;;;63.35;29.02;;;;;;;11.51;44.34;101281.00;4432243;32;20057;-69
2021/12/22 03:07:51;;;;;;;67.43;27.73;;;;;;;11.28;44.47;101283.84;4431196;32;20421;-69
2021/12/22 03:10:18;;;;;;;62.65;29.70;;;;;;;11.29;44.25;101277.00;4429389;32;20064;-69
2021/12/22 03:12:46;;;;;;;64.53;28.98;;;;;;;11.16;44.75;101267.56;4431130;32;20071;-69
2021/12/22 03:15:13;;;;;;;64.80;28.60;;;;;;;11.09;45.19;101270.53;4429870;32;20042;-70
2021/12/22 03:17:39;;;;;;;62.62;29.90;;;;;;;10.92;45.12;101266.78;4431764;32;20218;-69
2021/12/22 03:20:07;;;;;;;66.10;28.73;;;;;;;10.93;45.08;101273.22;4428691;32;20160;-69
2021/12/22 03:22:33;;;;;;;70.32;30.55;;;;;;;11.06;45.03;101277.00;4417016;32;20566;-69
2021/12/22 03:24:59;;;;;;;70.43;31.02;;;;;;;10.90;45.12;101272.06;4428754;32;20100;-69
2021/12/22 03:27:25;;;;;;;62.83;29.50;;;;;;;10.96;44.96;101273.16;4428243;32;20661;-69
2021/12/22 03:29:51;;;;;;;66.00;28.90;;;;;;;10.84;45.00;101264.53;4430047;32;20340;-69
2021/12/22 03:32:18;;;;;;;69.00;30.75;;;;;;;11.15;44.63;101260.34;4429944;32;20103;-69
2021/12/22 03:34:44;;;;;;;67.93;30.40;;;;;;;10.95;45.05;101251.84;4430923;32;20124;-69
2021/12/22 03:37:12;;;;;;;71.15;30.25;;;;;;;10.99;44.74;101255.41;4429383;32;20042;-69
2021/12/22 03:39:38;;;;;;;71.15;29.35;;;;;;;11.13;44.92;101249.50;4428953;32;20089;-69
2021/12/22 03:42:07;;;;;;;70.82;29.25;;;;;;;10.87;45.24;101247.56;4429479;32;20068;-69
2021/12/22 03:44:33;;;;;;;71.93;32.38;;;;;;;11.03;45.00;101247.69;4430521;32;20411;-69
2021/12/22 03:47:00;;;;;;;75.62;31.33;;;;;;;10.74;45.18;101234.53;4430774;32;20776;-69
2021/12/22 03:49:27;;;;;;;78.72;31.27;;;;;;;10.75;44.87;101238.94;4428454;32;20045;-70
2021/12/22 03:51:53;;;;;;;75.45;30.80;;;;;;;10.85;45.10;101229.50;4428409;32;20486;-69
2021/12/22 03:54:20;;;;;;;77.55;31.50;;;;;;;10.75;45.12;101224.84;4427331;32;20041;-70
2021/12/22 03:56:46;;;;;;;64.55;30.02;;;;;;;10.99;44.65;101226.44;4429359;32;20069;-70
2021/12/22 03:59:12;;;;;;;77.57;31.65;;;;;;;10.87;44.89;101215.81;4430822;32;20067;-70
2021/12/22 04:01:37;;;;;;;78.85;31.87;;;;;;;10.77;45.23;101226.00;4426203;32;20125;-69
2021/12/22 04:04:11;;;;;;;74.50;30.48;;;;;;;10.81;44.93;101234.41;4429922;32;20081;-69
2021/12/22 04:06:38;;;;;;;81.22;31.00;;;;;;;10.89;44.81;101224.63;4429727;32;20029;-69
2021/12/22 04:09:04;;;;;;;81.47;31.95;;;;;;;10.79;44.94;101239.66;4428932;32;20075;-70
2021/12/22 04:11:30;;;;;;;79.53;31.73;;;;;;;10.93;44.73;101236.59;4430413;32;20804;-69
2021/12/22 04:13:56;;;;;;;80.55;32.35;;;;;;;10.79;44.95;101234.03;4428253;32;20037;-69
2021/12/22 04:16:21;;;;;;;77.50;33.00;;;;;;;10.67;45.29;101231.81;4430017;32;20071;-70
2021/12/22 04:18:47;;;;;;;81.80;34.55;;;;;;;10.58;45.54;101228.78;4427986;32;20038;-70
2021/12/22 04:21:13;;;;;;;78.75;31.25;;;;;;;10.68;45.41;101233.44;4429140;32;20123;-70
2021/12/22 04:23:39;;;;;;;81.05;32.90;;;;;;;10.49;45.58;101229.28;4429633;32;20092;-70
2021/12/22 04:26:05;;;;;;;81.15;32.75;;;;;;;10.71;45.11;101226.94;4429024;32;20549;-70
2021/12/22 04:28:31;;;;;;;78.10;32.17;;;;;;;10.69;45.29;101223.75;4428909;32;20081;-70
2021/12/22 04:30:56;;;;;;;82.10;32.17;;;;;;;10.64;45.17;101210.16;4427695;32;20037;-69
2021/12/22 04:33:23;;;;;;;79.72;33.03;;;;;;;10.59;44.99;101207.84;4428853;32;20033;-70
2021/12/22 04:35:50;;;;;;;83.18;31.83;;;;;;;10.44;45.58;101210.09;4430699;32;20221;-69
2021/12/22 04:38:17;;;;;;;77.97;31.70;;;;;;;10.57;45.71;101196.22;4430877;32;20422;-70
2021/12/22 04:40:44;;;;;;;77.93;31.95;;;;;;;10.45;45.55;101194.00;4427646;32;20053;-71
2021/12/22 04:43:10;;;;;;;74.35;30.83;;;;;;;10.47;45.50;101200.81;4430626;32;20370;-71
2021/12/22 04:45:35;;;;;;;76.57;32.15;;;;;;;10.58;45.26;101195.00;4431414;32;20074;-70
2021/12/22 04:48:02;;;;;;;75.60;34.28;;;;;;;10.34;45.47;101190.56;4428577;32;20127;-70
2021/12/22 04:50:31;;;;;;;83.03;33.15;;;;;;;10.41;45.53;101193.25;4429743;32;20044;-70
2021/12/22 04:53:02;;;;;;;77.18;31.23;;;;;;;10.28;45.83;101195.09;4428491;32;20124;-70
2021/12/22 04:55:29;;;;;;;80.30;33.20;;;;;;;10.15;45.99;101188.47;4430313;32;20351;-71
2021/12/22 04:57:56;;;;;;;81.05;33.10;;;;;;;10.24;45.76;101183.09;4428003;32;20575;-70
2021/12/22 05:00:26;;;;;;;79.68;32.05;;;;;;;10.00;46.39;101173.75;4428377;32;20073;-70
2021/12/22 05:02:53;;;;;;;78.20;31.52;;;;;;;9.99;46.31;101173.00;4430688;32;20157;-71
2021/12/22 05:05:20;;;;;;;84.82;32.75;;;;;;;9.92;46.48;101169.50;4424728;32;20121;-70
2021/12/22 05:07:47;;;;;;;77.37;31.73;;;;;;;9.83;46.55;101167.22;4428415;32;20362;-69
2021/12/22 05:10:15;;;;;;;78.10;31.52;;;;;;;9.96;46.21;101159.78;4428867;32;20398;-70
2021/12/22 05:12:41;;;;;;;81.22;32.92;;;;;;;10.03;46.23;101150.41;4425682;32;20081;-70
2021/12/22 05:15:07;;;;;;;83.25;31.33;;;;;;;10.01;46.11;101150.06;4430308;32;20400;-70
2021/12/22 05:20:26;;;;;;;83.68;33.03;;;;;;;10.54;45.42;101137.97;3979859;32;15030711;-71
2021/12/22 05:22:52;;;;;;;84.55;34.30;;;;;;;10.54;45.42;101137.97;4432424;32;20545;-70
2021/12/22 05:25:18;;;;;;;82.95;32.58;;;;;;;9.99;46.03;101125.19;4431166;32;20313;-69
2021/12/22 05:27:44;;;;;;;88.68;32.97;;;;;;;9.86;46.32;101127.00;4430906;32;20555;-69
2021/12/22 05:30:11;;;;;;;84.65;32.33;;;;;;;9.83;46.36;101121.44;4428977;32;20084;-69
2021/12/22 05:32:38;;;;;;;83.30;34.20;;;;;;;9.89;46.43;101114.91;4429279;32;20085;-69
2021/12/22 05:35:07;;;;;;;80.38;33.92;;;;;;;9.75;46.64;101109.50;4427617;32;20390;-69
2021/12/22 05:37:33;;;;;;;88.50;32.38;;;;;;;9.78;46.67;101110.66;4431469;32;20147;-69
2021/12/22 05:39:59;;;;;;;79.72;33.13;;;;;;;9.78;46.51;101096.59;4429801;32;20105;-69
2021/12/22 05:42:27;;;;;;;76.78;30.27;;;;;;;9.59;46.80;101097.28;4432328;32;20041;-69
2021/12/22 05:44:54;;;;;;;81.47;30.45;;;;;;;9.42;47.25;101099.13;4430241;32;20100;-69
2021/12/22 05:47:19;;;;;;;76.78;30.65;;;;;;;9.48;46.88;101091.81;4431318;32;20030;-69
2021/12/22 05:49:48;;;;;;;77.70;29.83;;;;;;;9.46;46.80;101097.06;4432012;32;20119;-69
2021/12/22 05:52:14;;;;;;;77.07;32.15;;;;;;;9.63;46.41;101100.84;4429308;32;20045;-69
2021/12/22 05:54:40;;;;;;;76.75;30.98;;;;;;;9.67;46.25;101104.41;4430227;32;20060;-69
2021/12/22 05:57:06;;;;;;;86.87;30.58;;;;;;;9.56;46.02;101100.94;4429994;32;20038;-69
2021/12/22 05:59:32;;;;;;;80.85;30.15;;;;;;;9.59;46.46;101097.28;4428599;32;20063;-69
2021/12/22 06:01:57;;;;;;;77.72;29.83;;;;;;;9.62;46.15;101094.44;4428265;32;20584;-69
2021/12/22 06:04:23;;;;;;;80.32;29.92;;;;;;;9.61;46.21;101084.41;4426960;32;20270;-69
2021/12/22 06:06:49;;;;;;;84.25;32.42;;;;;;;9.55;46.19;101093.75;4432248;32;20109;-69
2021/12/22 06:09:15;;;;;;;74.00;29.48;;;;;;;9.54;46.37;101092.94;4431658;32;20073;-69
2021/12/22 06:11:41;;;;;;;77.87;30.62;;;;;;;9.45;46.36;101094.69;4427893;32;20068;-69
2021/12/22 06:14:07;;;;;;;74.25;29.77;;;;;;;9.56;46.35;101090.50;4429591;32;20142;-69
2021/12/22 06:16:33;;;;;;;82.82;30.65;;;;;;;9.77;46.10;101100.63;4431591;32;20072;-69
2021/12/22 06:19:03;;;;;;;72.87;28.73;;;;;;;9.66;46.05;101097.19;4428814;32;20547;-69
2021/12/22 06:21:30;;;;;;;83.40;31.95;;;;;;;9.68;46.14;101094.75;4432047;32;20163;-69
2021/12/22 06:23:56;;;;;;;74.82;30.12;;;;;;;9.69;45.92;101094.31;4428981;32;20180;-69
2021/12/22 06:26:22;;;;;;;70.43;28.52;;;;;;;9.62;45.92;101088.81;4428070;32;20060;-69
2021/12/22 06:28:50;;;;;;;83.70;29.98;;;;;;;9.67;45.78;101090.34;4428170;32;20069;-69
2021/12/22 06:31:15;;;;;;;68.45;29.00;;;;;;;9.51;46.06;101078.97;4420384;32;20084;-69
2021/12/22 06:33:41;;;;;;;73.40;28.10;;;;;;;9.68;45.78;101078.69;4415699;32;20530;-69
2021/12/22 06:36:07;;;;;;;72.90;29.50;;;;;;;9.52;45.78;101074.91;4416897;32;20026;-69
2021/12/22 06:38:33;;;;;;;71.55;29.00;;;;;;;9.74;45.70;101074.19;4421398;32;20529;-69
2021/12/22 06:40:59;;;;;;;76.62;28.98;;;;;;;9.68;45.61;101077.87;4415268;32;20128;-69
2021/12/22 06:43:25;;;;;;;76.22;29.65;;;;;;;9.56;45.98;101075.66;4419470;32;20145;-69
2021/12/22 06:45:51;;;;;;;71.62;30.12;;;;;;;9.78;45.61;101076.91;4416607;32;20050;-69
2021/12/22 06:48:17;;;;;;;71.72;28.25;;;;;;;9.64;45.76;101085.59;4421252;32;20063;-69
2021/12/22 06:50:43;;;;;;;85.38;31.12;;;;;;;9.71;45.77;101082.66;4421451;32;20080;-69
2021/12/22 06:53:08;;;;;;;79.72;31.60;;;;;;;9.64;45.72;101091.97;4419154;32;20065;-69
2021/12/22 06:55:34;;;;;;;76.43;29.45;;;;;;;9.62;45.78;101086.00;4417963;32;20105;-69
2021/12/22 06:58:01;;;;;;;74.47;29.23;;;;;;;9.52;46.06;101074.91;4416919;32;20091;-69
2021/12/22 07:00:28;;;;;;;77.55;28.67;;;;;;;9.35;46.17;101073.12;4415851;32;20069;-70
2021/12/22 07:02:55;;;;;;;78.25;29.25;;;;;;;9.46;45.76;101076.63;4421699;32;20034;-69
2021/12/22 07:05:22;;;;;;;75.37;26.67;;;;;;;9.39;45.85;101076.72;4417601;32;20185;-69
2021/12/22 07:07:47;;;;;;;76.45;29.02;;;;;;;9.43;46.04;101074.66;4419594;32;20431;-69
2021/12/22 07:10:13;;;;;;;71.43;28.77;;;;;;;9.34;45.94;101072.38;4419813;32;20504;-69
2021/12/22 07:12:42;;;;;;;75.25;28.00;;;;;;;9.38;45.95;101075.09;4417985;32;20073;-69
2021/12/22 07:15:10;;;;;;;66.72;27.33;;;;;;;9.54;46.11;101078.88;4420683;32;20533;-69
2021/12/22 07:17:37;;;;;;;66.30;26.15;;;;;;;9.41;46.26;101080.69;4416288;32;20090;-69
2021/12/22 07:20:05;;;;;;;77.25;29.87;;;;;;;9.49;46.46;101081.37;4417378;32;20496;-70
2021/12/22 07:22:33;;;;;;;74.72;28.45;;;;;;;9.46;46.66;101080.22;4421392;32;20118;-69
2021/12/22 07:24:58;;;;;;;76.60;28.80;;;;;;;9.51;46.41;101076.91;4420275;32;20311;-69
2021/12/22 07:27:24;;;;;;;76.12;28.65;;;;;;;9.47;46.28;101079.00;4413147;32;20030;-70
2021/12/22 07:29:50;;;;;;;71.60;26.60;;;;;;;9.43;46.12;101080.25;4418476;32;20041;-69
2021/12/22 07:32:16;;;;;;;73.85;27.15;;;;;;;9.44;46.35;101082.66;4418487;32;20710;-69
2021/12/22 07:34:47;;;;;;;70.15;26.42;;;;;;;9.38;46.59;101077.91;4417084;32;20073;-69
2021/12/22 07:39:54;;;;;;;71.32;26.50;;;;;;;9.69;46.09;101085.88;3980169;32;15021985;-69
2021/12/22 07:42:20;;;;;;;75.07;26.73;;;;;;;9.69;46.09;101085.88;4427487;32;20067;-70
2021/12/22 07:44:46;;;;;;;72.20;26.15;;;;;;;9.45;46.21;101081.41;4430578;32;20194;-69
2021/12/22 07:47:12;;;;;;;66.47;25.50;;;;;;;9.48;46.11;101077.00;4427154;32;20413;-69
2021/12/22 07:49:38;;;;;;;69.05;26.05;;;;;;;9.55;46.01;101082.50;4429427;32;20533;-69
2021/12/22 07:52:04;;;;;;;65.80;26.75;;;;;;;9.50;46.12;101088.59;4428269;32;20135;-69
2021/12/22 07:54:30;;;;;;;69.72;26.73;;;;;;;9.52;46.01;101084.16;4430314;32;20308;-69
2021/12/22 07:56:56;;;;;;;66.93;25.45;;;;;;;9.55;45.94;101083.28;4432634;32;20129;-69
2021/12/22 07:59:22;;;;;;;67.68;26.17;;;;;;;9.56;46.01;101090.50;4430045;32;20060;-69
2021/12/22 08:01:47;;;;;;;75.60;26.92;;;;;;;9.56;46.06;101101.75;4430186;32;20382;-69
2021/12/22 08:04:13;;;;;;;63.70;23.35;;;;;;;9.54;46.21;101097.75;4429135;32;20399;-69
2021/12/22 08:06:39;;;;;;;66.62;26.08;;;;;;;9.60;46.28;101102.47;4425526;32;20490;-69
2021/12/22 08:09:05;;;;;;;72.97;26.15;;;;;;;9.74;45.95;101102.28;4430424;32;20072;-69
2021/12/22 08:11:30;;;;;;;69.82;26.87;;;;;;;9.73;45.80;101092.25;4427596;32;20426;-69
2021/12/22 08:13:56;;;;;;;60.28;21.45;;;;;;;9.83;45.53;101096.94;4429600;32;20100;-69
2021/12/22 08:16:22;;;;;;;63.65;22.95;;;;;;;9.82;46.02;101098.13;4427072;32;20033;-69
2021/12/22 08:18:48;;;;;;;60.78;23.65;;;;;;;9.94;45.80;101105.19;4428826;32;20069;-69
2021/12/22 08:21:13;;;;;;;63.60;23.23;;;;;;;10.01;45.86;101105.09;4427498;32;20140;-69
2021/12/22 08:23:40;;;;;;;64.87;23.27;;;;;;;10.15;45.70;101099.25;4430988;32;20106;-69
2021/12/22 08:26:06;;;;;;;59.08;22.33;;;;;;;10.35;45.23;101102.13;4430353;32;20478;-69
2021/12/22 08:28:32;;;;;;;68.32;22.67;;;;;;;10.46;44.95;101103.53;4425255;32;20412;-70
2021/12/22 08:30:57;;;;;;;54.00;20.12;;;;;;;10.47;44.86;101095.88;4429004;32;20033;-69
2021/12/22 08:33:26;;;;;;;59.00;23.62;;;;;;;10.44;44.67;101093.94;4426500;32;20030;-69
2021/12/22 08:39:00;;;;;;;53.53;20.25;;;;;;;10.73;44.68;101101.44;4426669;32;20138;-69
2021/12/22 08:41:30;;;;;;;46.67;18.67;;;;;;;10.53;45.00;101092.16;4428176;32;20033;-69
2021/12/22 08:43:59;;;;;;;54.25;19.83;;;;;;;10.66;44.12;101081.88;4428173;32;20387;-69
2021/12/22 08:46:25;;;;;;;51.00;19.42;;;;;;;10.37;44.85;101077.97;4432624;32;20089;-69
2021/12/22 08:48:51;;;;;;;54.13;18.42;;;;;;;10.21;45.35;101075.03;4426604;32;20125;-69
2021/12/22 08:51:17;;;;;;;52.42;20.73;;;;;;;10.20;45.81;101069.84;4414153;32;20445;-69
2021/12/22 08:53:43;;;;;;;65.03;21.15;;;;;;;10.31;45.47;101076.09;4417740;32;20063;-69
2021/12/22 08:56:08;;;;;;;52.65;17.98;;;;;;;10.36;45.23;101072.75;4416986;32;20146;-69
2021/12/22 08:58:34;;;;;;;48.67;17.80;;;;;;;10.54;45.09;101076.88;4419819;32;20051;-69
2021/12/22 09:01:00;;;;;;;53.95;18.25;;;;;;;10.55;45.34;101067.19;4417455;32;20068;-69
2021/12/22 09:03:27;;;;;;;43.67;17.87;;;;;;;10.62;44.96;101071.91;4419121;32;20426;-69
2021/12/22 09:05:53;;;;;;;52.05;19.12;;;;;;;10.79;45.09;101067.94;4419685;32;20050;-69
2021/12/22 09:08:18;;;;;;;65.07;19.08;;;;;;;10.82;45.38;101062.25;4418633;32;20431;-69
2021/12/22 09:10:45;;;;;;;51.17;18.70;;;;;;;11.17;44.62;101069.19;4417329;32;20419;-70
2021/12/22 09:13:13;;;;;;;45.47;17.35;;;;;;;11.38;44.21;101063.84;4419856;32;20056;-70
2021/12/22 09:15:39;;;;;;;38.33;15.93;;;;;;;11.49;44.28;101060.81;4419556;32;20100;-69
2021/12/22 09:18:05;;;;;;;46.30;18.08;;;;;;;11.58;43.87;101050.53;4419091;32;20030;-69
2021/12/22 09:20:31;;;;;;;45.47;15.75;;;;;;;11.42;43.63;101044.06;4417433;32;20460;-70
2021/12/22 09:22:57;;;;;;;48.15;17.87;;;;;;;11.77;43.31;101043.25;4419305;32;20088;-69
2021/12/22 09:25:23;;;;;;;45.50;17.70;;;;;;;11.98;42.80;101045.56;4420376;32;20427;-69
2021/12/22 09:27:49;;;;;;;46.53;17.05;;;;;;;11.91;42.89;101040.09;4418401;32;20099;-69
2021/12/22 09:30:14;;;;;;;51.63;16.30;;;;;;;11.71;43.14;101031.72;4417415;32;20610;-69
2021/12/22 09:32:40;;;;;;;39.95;16.23;;;;;;;11.83;42.89;101042.31;4416930;32;20234;-69
2021/12/22 09:35:07;;;;;;;52.47;17.52;;;;;;;11.96;42.37;101045.19;4416962;32;20456;-69
2021/12/22 09:37:33;;;;;;;46.95;16.62;;;;;;;12.16;42.54;101048.72;4419418;32;20457;-69
2021/12/22 09:39:58;;;;;;;44.13;15.30;;;;;;;12.31;42.06;101051.97;4419223;32;20185;-70
2021/12/22 09:42:24;;;;;;;41.58;16.25;;;;;;;12.25;42.12;101050.91;4414476;32;20212;-69
2021/12/22 09:44:50;;;;;;;53.47;18.90;;;;;;;12.24;42.18;101044.47;4415287;32;20109;-69
2021/12/22 09:47:26;;;;;;;46.88;15.93;;;;;;;12.48;41.12;101045.84;4420614;32;20026;-70
2021/12/22 09:50:07;;;;;;;;;;;;;;;12.83;41.03;101044.91;4419032;32;20099;-69
2021/12/22 09:52:36;;;;;;;43.28;13.77;;;;;;;13.03;40.55;101048.34;4416646;32;19992;-69
2021/12/22 09:55:04;;;;;;;49.53;16.37;;;;;;;12.33;41.95;101032.59;4416091;32;20138;-70
2021/12/22 09:57:30;;;;;;;34.47;14.68;;;;;;;12.48;41.61;101025.28;4418413;32;20038;-69
2021/12/22 09:59:58;;;;;;;37.78;14.10;;;;;;;12.38;41.82;101015.09;4416815;32;20454;-69
2021/12/22 10:02:29;;;;;;;39.92;13.90;;;;;;;12.27;42.13;101014.59;4417842;32;20934;-69
2021/12/22 10:04:57;;;;;;;35.67;14.10;;;;;;;12.24;42.12;101013.44;4416741;32;20512;-70
2021/12/22 10:07:27;;;;;;;41.17;15.25;;;;;;;12.15;42.40;101012.50;4417486;32;20050;-70
2021/12/22 10:09:55;;;;;;;36.80;14.25;;;;;;;12.16;42.60;101014.06;4415594;32;20154;-69
2021/12/22 10:12:24;;;;;;;37.42;14.48;;;;;;;12.28;42.14;101014.16;4414119;32;20098;-69
2021/12/22 10:14:55;;;;;;;37.85;15.75;;;;;;;12.12;42.11;101000.03;4417280;32;20347;-70
2021/12/22 10:17:42;;;;;;;38.45;14.60;;;;;;;12.56;41.82;101007.72;4416307;32;21668;-69
2021/12/22 10:20:13;;;;;;;41.40;14.40;;;;;;;12.53;41.45;101008.62;4417474;32;20569;-70
2021/12/22 10:22:42;;;;;;;29.85;12.50;;;;;;;12.51;41.55;101011.09;4419472;32;20081;-70
2021/12/22 10:25:14;;;;;;;39.55;14.02;;;;;;;12.57;41.46;101011.34;4417575;32;20021;-70
2021/12/22 10:27:42;;;;;;;41.50;15.30;;;;;;;12.53;41.67;101002.19;4417456;32;20140;-70
2021/12/22 10:33:24;;;;;;;44.17;15.77;;;;;;;12.93;41.19;101000.63;3995291;31;15019337;-69
2021/12/22 10:35:56;;;;;;;45.50;14.98;;;;;;;12.93;41.19;101000.63;4459024;32;20062;-70
2021/12/22 10:38:24;;;;;;;37.95;13.95;;;;;;;12.49;41.76;100996.63;4459827;32;20040;-70
2021/12/22 10:40:53;;;;;;;32.97;14.57;;;;;;;12.48;41.83;101002.72;4462787;32;20069;-69
2021/12/22 10:45:59;;;;;;;35.63;14.75;;;;;;;12.77;40.97;100984.53;3979204;32;15023356;-69
2021/12/22 10:51:25;;;;;;;33.72;14.82;;;;;;;12.50;41.88;100963.53;4430380;32;20179;-70
2021/12/22 10:53:53;;;;;;;40.10;14.50;;;;;;;12.51;42.12;100971.56;4432427;32;20554;-69
2021/12/22 10:56:30;;;;;;;46.78;16.25;;;;;;;12.53;42.09;100960.62;4432030;32;20893;-69
2021/12/22 10:59:18;;;;;;;37.97;14.20;;;;;;;12.69;41.74;100960.56;4426381;32;20117;-69
2021/12/22 11:04:29;;;;;;;28.05;12.90;;;;;;;13.04;41.17;100948.22;3996144;31;15027140;-70
2021/12/22 11:07:04;;;;;;;39.15;14.55;;;;;;;13.04;41.17;100948.22;4447019;32;20107;-70
2021/12/22 11:09:34;;;;;;;39.63;13.32;;;;;;;12.98;40.89;100935.88;4447029;32;20505;-70
2021/12/22 11:12:00;;;;;;;31.50;12.80;;;;;;;12.87;41.30;100924.13;4429395;32;20059;-70
2021/12/22 11:14:32;;;;;;;39.03;13.60;;;;;;;12.86;40.97;100916.09;4444012;32;20072;-70
2021/12/22 11:22:15;;;;;;;36.72;13.30;;;;;;;13.66;40.14;100912.72;3980883;32;15028277;-70
2021/12/22 11:27:26;;;;;;;33.45;12.15;;;;;;;13.99;39.75;100903.44;3975735;32;15029097;-70
2021/12/22 11:29:56;;;;;;;30.10;13.88;;;;;;;13.99;39.75;100903.44;4425631;32;20599;-70
2021/12/22 11:32:25;;;;;;;36.58;13.65;;;;;;;13.51;40.06;100901.09;4427843;32;20070;-70
2021/12/22 11:34:53;;;;;;;26.23;12.45;;;;;;;13.57;40.06;100876.63;4424129;32;20194;-70
2021/12/22 11:37:20;;;;;;;31.35;14.00;;;;;;;13.79;39.81;100871.03;4429893;32;20038;-70
2021/12/22 11:39:47;;;;;;;34.47;13.35;;;;;;;13.73;39.37;100870.84;4429878;32;20079;-70
2021/12/22 11:42:14;;;;;;;30.23;13.20;;;;;;;13.78;39.76;100866.63;4422443;32;20077;-70
2021/12/22 11:44:44;;;;;;;32.08;13.35;;;;;;;13.79;39.65;100856.88;4426888;32;20070;-70
2021/12/22 11:47:12;;;;;;;30.62;13.18;;;;;;;13.89;39.35;100862.19;4427582;32;20026;-70
2021/12/22 11:55:25;;;;;;;28.45;11.77;;;;;;;14.59;38.20;100829.66;3980244;32;15022449;-70